Kapowsin, WA (98344)

5:41 PM PST on February 11, 2016 (GMT -0800)
224th Street & Orting-Kapowsin Hwy | | Change Station
CLOSE
Current Station
Personal Weather Station
Location: Graham, WA
Elevation: 791 ft
Nearby Weather Stations

Elev 791 ft 47.05 °N, 122.25 °W | Updated 6 seconds ago

Rain
Rain
49.8 °F
Feels Like 50 °F
N
0.0
Wind Variable Wind from NNE
Gusts 0.0 mph

Today
High -- | Low -- °F
--% Chance of Precip.
Yesterday
High -- | Low -- °F
Precip. -- in
Pressure 30.12 in
Visibility 3.0 miles
Clouds Scattered Clouds 3900 ft
Overcast 4600 ft
Windchill 50 °F
Dew Point 42 °F
Humidity 74%
Rainfall 0.11 in
Snow Depth Not available.
7:20 AM 5:26 PM
Waxing Crescent, 16% visible
METAR KPLU 120135Z AUTO 00000KT 3SM -DZ SCT039 OVC046 11/11 A3012 RMK AO2
Pressure 30.12 in
Visibility 3.0 miles
Clouds Scattered Clouds 3900 ft
Overcast 4600 ft
Windchill 50 °F
Dew Point 42 °F
Humidity 74%
Rainfall 0.11 in
Snow Depth Not available.
7:20 AM 5:26 PM
Waxing Crescent, 16% visible
METAR KPLU 120135Z AUTO 00000KT 3SM -DZ SCT039 OVC046 11/11 A3012 RMK AO2

10-Day Weather Forecast

Almanac

Astronomy

Feb. 11, 2016 Rise Set
Actual Time
Civil Twilight
Nautical Twilight
Astronomical Twilight
Moon
Length of Visible Light
Length of Day
Tomorrow will be .
, % of the Moon is Illuminated

Today's Extremes

State Highs State Lows

Community

WunderPhotos

Upload Photos

1,892,207 photos uploaded!

WunderBlog® & News

Nearby

Air Quality

  Air Quality AQ Index Pollutant
Not available.

Snow Depth

Station Depth Elevation

Earthquake Activity

City Distance Mag. Time & Date
Minimum magnitude displayed is 2.5.

Coastal Water Temperatures

Place Temperature

Stations

Nearby Weather Stations

Station Location Temp. Windchill Dew Point Humidity Wind Precip. Elev Updated Type
                   

Watches & Warnings

There are currently no watches in effect.